Kezdőlap
METAR-TAF:

METAR-TAF

Repülőterek :

Los Ángeles, Chile

földrajzi szélesség: 37-24-07S, földrajzi hosszúság: 072-25-32W, magasság: 114 m

Jelenlegi meteorológiai megfigyelések

A jelentés 10 órával és 12 perccel ezelõtt készült, 23:00 UTC
Északi szél 9 kt
Hőmérséklet 13°C
Páratartalom 67%
Légköri nyomás 1016 hPa
Látótávolság: 7000 m
Borult 3000 lábon
Záporok a közelben,

METAR: SCGE 242300Z 01009KT 7000 VCSH OVC030 13/07 Q1016

Idő: 05:12 (09:12 UTC)


TAF: hiányzik

Meteorológiai megfigyelések és előrejelzések több, mint 4000 repülőtéren (METAR és TAF jelentéseket).

A térképen piros és sárga pontok jelzik az elérhető meteorológiai állomásokat.

Mozgassa az egeret a pont fölött, hogy megjelenjen az állomás neve.

Azután kattintson az időjárási megfigyelések és előrejelzések megtekintéséhez.

A térkép megváltoztatása: kattintson a fekete keresztel jelölt zöld gombra ráközelítéshez, a vonallal jelölt zöld gombra távolításhoz, vagy a zöld nyilakra a szomszédos térképek eléréséhez.


METAR-TAF: